sensor_id;sensor_type;location;lat;lon;timestamp;P1;durP1;ratioP1;P2;durP2;ratioP2
51358;SDS011;37448;51.588;7.248;2023-09-30T00:00:03;8.55;;;2.90;;
51358;SDS011;37448;51.588;7.248;2023-09-30T00:02:10;8.40;;;3.33;;
51358;SDS011;37448;51.588;7.248;2023-09-30T00:04:11;6.85;;;3.38;;
51358;SDS011;37448;51.588;7.248;2023-09-30T00:06:11;10.10;;;3.17;;
51358;SDS011;37448;51.588;7.248;2023-09-30T00:08:12;8.10;;;2.78;;
51358;SDS011;37448;51.588;7.248;2023-09-30T00:10:12;7.32;;;2.90;;
51358;SDS011;37448;51.588;7.248;2023-09-30T00:12:12;10.55;;;3.55;;
51358;SDS011;37448;51.588;7.248;2023-09-30T00:14:13;11.20;;;4.68;;
51358;SDS011;37448;51.588;7.248;2023-09-30T00:16:13;9.98;;;3.97;;
51358;SDS011;37448;51.588;7.248;2023-09-30T00:18:13;10.40;;;3.70;;
51358;SDS011;37448;51.588;7.248;2023-09-30T00:20:14;10.85;;;3.50;;
51358;SDS011;37448;51.588;7.248;2023-09-30T00:22:17;11.13;;;4.10;;
51358;SDS011;37448;51.588;7.248;2023-09-30T00:24:17;11.90;;;4.72;;
51358;SDS011;37448;51.588;7.248;2023-09-30T00:26:18;9.13;;;3.38;;
51358;SDS011;37448;51.588;7.248;2023-09-30T00:28:21;7.95;;;3.30;;
51358;SDS011;37448;51.588;7.248;2023-09-30T00:30:21;7.60;;;4.03;;
51358;SDS011;37448;51.588;7.248;2023-09-30T00:32:21;12.40;;;3.50;;
51358;SDS011;37448;51.588;7.248;2023-09-30T00:34:22;9.95;;;3.33;;
51358;SDS011;37448;51.588;7.248;2023-09-30T00:36:22;9.00;;;4.13;;
51358;SDS011;37448;51.588;7.248;2023-09-30T00:38:22;8.32;;;3.47;;
51358;SDS011;37448;51.588;7.248;2023-09-30T00:40:24;10.32;;;3.58;;
51358;SDS011;37448;51.588;7.248;2023-09-30T00:42:25;6.18;;;3.15;;
51358;SDS011;37448;51.588;7.248;2023-09-30T00:44:26;9.20;;;3.67;;
51358;SDS011;37448;51.588;7.248;2023-09-30T00:46:28;13.68;;;4.40;;
51358;SDS011;37448;51.588;7.248;2023-09-30T00:48:30;8.48;;;3.42;;
51358;SDS011;37448;51.588;7.248;2023-09-30T00:50:30;9.00;;;3.10;;
51358;SDS011;37448;51.588;7.248;2023-09-30T00:52:31;10.35;;;3.97;;
51358;SDS011;37448;51.588;7.248;2023-09-30T00:54:33;11.90;;;3.45;;
51358;SDS011;37448;51.588;7.248;2023-09-30T00:56:35;5.90;;;3.42;;
51358;SDS011;37448;51.588;7.248;2023-09-30T00:58:43;9.75;;;3.88;;
51358;SDS011;37448;51.588;7.248;2023-09-30T01:00:46;9.27;;;3.38;;
51358;SDS011;37448;51.588;7.248;2023-09-30T01:02:47;10.63;;;3.10;;
51358;SDS011;37448;51.588;7.248;2023-09-30T01:04:48;13.57;;;4.30;;
51358;SDS011;37448;51.588;7.248;2023-09-30T01:06:49;10.23;;;4.15;;
51358;SDS011;37448;51.588;7.248;2023-09-30T01:08:50;9.32;;;3.50;;
51358;SDS011;37448;51.588;7.248;2023-09-30T01:10:50;9.63;;;3.05;;
51358;SDS011;37448;51.588;7.248;2023-09-30T01:12:51;9.38;;;3.63;;
51358;SDS011;37448;51.588;7.248;2023-09-30T01:14:56;8.30;;;3.28;;
51358;SDS011;37448;51.588;7.248;2023-09-30T01:16:57;6.13;;;3.22;;
51358;SDS011;37448;51.588;7.248;2023-09-30T01:18:58;11.13;;;4.22;;
51358;SDS011;37448;51.588;7.248;2023-09-30T01:21:00;7.88;;;2.70;;
51358;SDS011;37448;51.588;7.248;2023-09-30T01:23:03;9.00;;;3.20;;
51358;SDS011;37448;51.588;7.248;2023-09-30T01:25:04;9.60;;;3.67;;
51358;SDS011;37448;51.588;7.248;2023-09-30T01:27:04;7.55;;;3.90;;
51358;SDS011;37448;51.588;7.248;2023-09-30T01:29:05;10.95;;;3.78;;
51358;SDS011;37448;51.588;7.248;2023-09-30T01:31:05;8.80;;;4.07;;
51358;SDS011;37448;51.588;7.248;2023-09-30T01:33:06;10.27;;;3.30;;
51358;SDS011;37448;51.588;7.248;2023-09-30T01:35:07;8.65;;;3.35;;
51358;SDS011;37448;51.588;7.248;2023-09-30T01:37:08;9.70;;;3.08;;
51358;SDS011;37448;51.588;7.248;2023-09-30T01:39:10;10.27;;;3.10;;
51358;SDS011;37448;51.588;7.248;2023-09-30T01:41:11;11.00;;;4.30;;
51358;SDS011;37448;51.588;7.248;2023-09-30T01:43:11;8.68;;;3.95;;
51358;SDS011;37448;51.588;7.248;2023-09-30T01:45:13;7.43;;;3.53;;
51358;SDS011;37448;51.588;7.248;2023-09-30T01:47:14;8.70;;;3.65;;
51358;SDS011;37448;51.588;7.248;2023-09-30T01:49:15;9.63;;;3.83;;
51358;SDS011;37448;51.588;7.248;2023-09-30T01:51:15;7.68;;;3.00;;
51358;SDS011;37448;51.588;7.248;2023-09-30T01:53:16;9.48;;;3.92;;
51358;SDS011;37448;51.588;7.248;2023-09-30T01:55:16;11.13;;;3.47;;
51358;SDS011;37448;51.588;7.248;2023-09-30T01:57:17;10.20;;;3.85;;
51358;SDS011;37448;51.588;7.248;2023-09-30T01:59:17;11.38;;;3.63;;
51358;SDS011;37448;51.588;7.248;2023-09-30T02:01:18;12.27;;;3.83;;
51358;SDS011;37448;51.588;7.248;2023-09-30T02:03:18;9.68;;;2.97;;
51358;SDS011;37448;51.588;7.248;2023-09-30T02:05:18;9.10;;;3.78;;
51358;SDS011;37448;51.588;7.248;2023-09-30T02:07:19;7.90;;;3.53;;
51358;SDS011;37448;51.588;7.248;2023-09-30T02:09:19;11.40;;;3.67;;
51358;SDS011;37448;51.588;7.248;2023-09-30T02:11:20;7.90;;;3.42;;
51358;SDS011;37448;51.588;7.248;2023-09-30T02:13:20;7.30;;;3.25;;
51358;SDS011;37448;51.588;7.248;2023-09-30T02:15:21;10.63;;;3.97;;
51358;SDS011;37448;51.588;7.248;2023-09-30T02:17:21;8.95;;;3.70;;
51358;SDS011;37448;51.588;7.248;2023-09-30T02:19:22;12.32;;;3.65;;
51358;SDS011;37448;51.588;7.248;2023-09-30T02:21:23;12.85;;;3.85;;
51358;SDS011;37448;51.588;7.248;2023-09-30T02:23:24;15.40;;;3.63;;
51358;SDS011;37448;51.588;7.248;2023-09-30T02:25:25;13.48;;;3.55;;
51358;SDS011;37448;51.588;7.248;2023-09-30T02:27:25;9.90;;;4.18;;
51358;SDS011;37448;51.588;7.248;2023-09-30T02:29:25;10.63;;;3.75;;
51358;SDS011;37448;51.588;7.248;2023-09-30T02:31:26;14.82;;;4.57;;
51358;SDS011;37448;51.588;7.248;2023-09-30T02:33:26;10.68;;;3.60;;
51358;SDS011;37448;51.588;7.248;2023-09-30T02:35:27;9.63;;;3.60;;
51358;SDS011;37448;51.588;7.248;2023-09-30T02:37:27;13.02;;;3.67;;
51358;SDS011;37448;51.588;7.248;2023-09-30T02:39:29;8.40;;;3.55;;
51358;SDS011;37448;51.588;7.248;2023-09-30T02:41:29;11.15;;;3.95;;
51358;SDS011;37448;51.588;7.248;2023-09-30T02:43:29;7.20;;;3.15;;
51358;SDS011;37448;51.588;7.248;2023-09-30T02:45:30;8.13;;;3.05;;
51358;SDS011;37448;51.588;7.248;2023-09-30T02:47:31;8.23;;;3.65;;
51358;SDS011;37448;51.588;7.248;2023-09-30T02:49:33;10.40;;;3.80;;
51358;SDS011;37448;51.588;7.248;2023-09-30T02:51:33;13.13;;;3.22;;
51358;SDS011;37448;51.588;7.248;2023-09-30T02:53:34;9.00;;;4.43;;
51358;SDS011;37448;51.588;7.248;2023-09-30T02:55:34;10.70;;;3.20;;
51358;SDS011;37448;51.588;7.248;2023-09-30T02:57:35;9.50;;;3.55;;
51358;SDS011;37448;51.588;7.248;2023-09-30T02:59:35;9.60;;;3.63;;
51358;SDS011;37448;51.588;7.248;2023-09-30T03:01:36;6.90;;;3.10;;
51358;SDS011;37448;51.588;7.248;2023-09-30T03:03:36;15.70;;;4.47;;
51358;SDS011;37448;51.588;7.248;2023-09-30T03:05:38;12.95;;;3.75;;
51358;SDS011;37448;51.588;7.248;2023-09-30T03:07:39;10.05;;;3.35;;
51358;SDS011;37448;51.588;7.248;2023-09-30T03:09:41;12.18;;;3.53;;
51358;SDS011;37448;51.588;7.248;2023-09-30T03:11:43;8.43;;;3.65;;
51358;SDS011;37448;51.588;7.248;2023-09-30T03:13:43;12.63;;;3.95;;
51358;SDS011;37448;51.588;7.248;2023-09-30T03:15:44;10.90;;;3.45;;
51358;SDS011;37448;51.588;7.248;2023-09-30T03:17:44;10.13;;;3.50;;
51358;SDS011;37448;51.588;7.248;2023-09-30T03:19:45;10.45;;;3.70;;
51358;SDS011;37448;51.588;7.248;2023-09-30T03:21:45;13.00;;;3.72;;
51358;SDS011;37448;51.588;7.248;2023-09-30T03:23:45;10.35;;;3.40;;
51358;SDS011;37448;51.588;7.248;2023-09-30T03:25:46;7.57;;;2.70;;
51358;SDS011;37448;51.588;7.248;2023-09-30T03:27:47;11.50;;;3.35;;
51358;SDS011;37448;51.588;7.248;2023-09-30T03:29:48;7.53;;;2.53;;
51358;SDS011;37448;51.588;7.248;2023-09-30T03:31:49;7.15;;;3.35;;
51358;SDS011;37448;51.588;7.248;2023-09-30T03:33:50;11.50;;;3.42;;
51358;SDS011;37448;51.588;7.248;2023-09-30T03:35:53;12.13;;;4.05;;
51358;SDS011;37448;51.588;7.248;2023-09-30T03:37:54;11.60;;;3.17;;
51358;SDS011;37448;51.588;7.248;2023-09-30T03:39:54;11.00;;;3.47;;
51358;SDS011;37448;51.588;7.248;2023-09-30T03:41:55;9.32;;;3.45;;
51358;SDS011;37448;51.588;7.248;2023-09-30T03:43:59;8.40;;;2.80;;
51358;SDS011;37448;51.588;7.248;2023-09-30T03:45:59;11.95;;;2.88;;
51358;SDS011;37448;51.588;7.248;2023-09-30T03:48:01;7.65;;;3.17;;
51358;SDS011;37448;51.588;7.248;2023-09-30T03:50:02;6.40;;;2.70;;
51358;SDS011;37448;51.588;7.248;2023-09-30T03:52:04;11.73;;;3.47;;
51358;SDS011;37448;51.588;7.248;2023-09-30T03:54:06;9.48;;;3.33;;
51358;SDS011;37448;51.588;7.248;2023-09-30T03:56:07;8.77;;;3.35;;
51358;SDS011;37448;51.588;7.248;2023-09-30T03:58:07;9.15;;;3.70;;
51358;SDS011;37448;51.588;7.248;2023-09-30T04:00:08;9.85;;;3.25;;
51358;SDS011;37448;51.588;7.248;2023-09-30T04:02:15;11.65;;;3.38;;
51358;SDS011;37448;51.588;7.248;2023-09-30T04:04:16;5.15;;;2.45;;
51358;SDS011;37448;51.588;7.248;2023-09-30T04:06:16;7.95;;;3.03;;
51358;SDS011;37448;51.588;7.248;2023-09-30T04:08:16;9.57;;;3.10;;
51358;SDS011;37448;51.588;7.248;2023-09-30T04:10:17;10.93;;;3.40;;
51358;SDS011;37448;51.588;7.248;2023-09-30T04:12:18;7.63;;;3.47;;
51358;SDS011;37448;51.588;7.248;2023-09-30T04:14:18;11.15;;;3.38;;
51358;SDS011;37448;51.588;7.248;2023-09-30T04:16:18;10.13;;;3.42;;
51358;SDS011;37448;51.588;7.248;2023-09-30T04:18:19;12.25;;;3.30;;
51358;SDS011;37448;51.588;7.248;2023-09-30T04:20:21;11.15;;;3.88;;
51358;SDS011;37448;51.588;7.248;2023-09-30T04:22:23;10.93;;;3.25;;
51358;SDS011;37448;51.588;7.248;2023-09-30T04:24:25;7.63;;;3.03;;
51358;SDS011;37448;51.588;7.248;2023-09-30T04:26:26;8.65;;;3.03;;
51358;SDS011;37448;51.588;7.248;2023-09-30T04:28:26;11.80;;;3.28;;
51358;SDS011;37448;51.588;7.248;2023-09-30T04:30:27;9.10;;;3.58;;
51358;SDS011;37448;51.588;7.248;2023-09-30T04:32:27;10.52;;;3.72;;
51358;SDS011;37448;51.588;7.248;2023-09-30T04:34:28;7.47;;;2.83;;
51358;SDS011;37448;51.588;7.248;2023-09-30T04:36:28;8.90;;;3.60;;
51358;SDS011;37448;51.588;7.248;2023-09-30T04:38:28;9.25;;;2.92;;
51358;SDS011;37448;51.588;7.248;2023-09-30T04:40:31;8.10;;;3.15;;
51358;SDS011;37448;51.588;7.248;2023-09-30T04:42:35;8.77;;;4.18;;
51358;SDS011;37448;51.588;7.248;2023-09-30T04:44:37;7.47;;;3.45;;
51358;SDS011;37448;51.588;7.248;2023-09-30T04:46:38;11.27;;;3.78;;
51358;SDS011;37448;51.588;7.248;2023-09-30T04:48:45;9.70;;;3.10;;
51358;SDS011;37448;51.588;7.248;2023-09-30T04:50:48;10.88;;;3.60;;
51358;SDS011;37448;51.588;7.248;2023-09-30T04:52:49;10.30;;;3.35;;
51358;SDS011;37448;51.588;7.248;2023-09-30T04:54:53;4.57;;;2.80;;
51358;SDS011;37448;51.588;7.248;2023-09-30T04:56:53;9.85;;;3.30;;
51358;SDS011;37448;51.588;7.248;2023-09-30T04:58:54;9.20;;;3.10;;
51358;SDS011;37448;51.588;7.248;2023-09-30T05:00:54;11.18;;;2.90;;
51358;SDS011;37448;51.588;7.248;2023-09-30T05:02:55;12.18;;;3.55;;
51358;SDS011;37448;51.588;7.248;2023-09-30T05:04:56;11.75;;;3.47;;
51358;SDS011;37448;51.588;7.248;2023-09-30T05:06:56;8.68;;;3.70;;
51358;SDS011;37448;51.588;7.248;2023-09-30T05:08:56;8.25;;;3.08;;
51358;SDS011;37448;51.588;7.248;2023-09-30T05:10:57;8.00;;;3.20;;
51358;SDS011;37448;51.588;7.248;2023-09-30T05:12:57;11.25;;;3.90;;
51358;SDS011;37448;51.588;7.248;2023-09-30T05:14:57;9.18;;;3.05;;
51358;SDS011;37448;51.588;7.248;2023-09-30T05:16:58;11.13;;;3.30;;
51358;SDS011;37448;51.588;7.248;2023-09-30T05:18:59;8.70;;;3.05;;
51358;SDS011;37448;51.588;7.248;2023-09-30T05:20:59;10.73;;;3.17;;
51358;SDS011;37448;51.588;7.248;2023-09-30T05:23:00;6.85;;;2.92;;
51358;SDS011;37448;51.588;7.248;2023-09-30T05:25:00;8.23;;;3.20;;
51358;SDS011;37448;51.588;7.248;2023-09-30T05:27:01;8.77;;;3.42;;
51358;SDS011;37448;51.588;7.248;2023-09-30T05:29:02;8.93;;;3.05;;
51358;SDS011;37448;51.588;7.248;2023-09-30T05:31:03;11.85;;;3.25;;
51358;SDS011;37448;51.588;7.248;2023-09-30T05:33:03;12.10;;;3.03;;
51358;SDS011;37448;51.588;7.248;2023-09-30T05:35:05;10.75;;;3.33;;
51358;SDS011;37448;51.588;7.248;2023-09-30T05:37:12;15.30;;;4.82;;
51358;SDS011;37448;51.588;7.248;2023-09-30T05:39:12;10.77;;;3.72;;
51358;SDS011;37448;51.588;7.248;2023-09-30T05:41:16;10.25;;;3.60;;
51358;SDS011;37448;51.588;7.248;2023-09-30T05:43:16;11.10;;;3.17;;
51358;SDS011;37448;51.588;7.248;2023-09-30T05:45:17;15.00;;;4.68;;
51358;SDS011;37448;51.588;7.248;2023-09-30T05:47:17;10.02;;;3.45;;
51358;SDS011;37448;51.588;7.248;2023-09-30T05:49:17;9.88;;;3.25;;
51358;SDS011;37448;51.588;7.248;2023-09-30T05:51:19;10.57;;;3.38;;
51358;SDS011;37448;51.588;7.248;2023-09-30T05:53:19;12.02;;;3.65;;
51358;SDS011;37448;51.588;7.248;2023-09-30T05:55:21;10.88;;;3.15;;
51358;SDS011;37448;51.588;7.248;2023-09-30T05:57:22;11.75;;;3.53;;
51358;SDS011;37448;51.588;7.248;2023-09-30T05:59:23;9.68;;;3.50;;
51358;SDS011;37448;51.588;7.248;2023-09-30T06:01:25;9.30;;;3.13;;
51358;SDS011;37448;51.588;7.248;2023-09-30T06:03:26;11.15;;;4.03;;
51358;SDS011;37448;51.588;7.248;2023-09-30T06:05:29;9.32;;;3.53;;
51358;SDS011;37448;51.588;7.248;2023-09-30T06:07:31;10.63;;;3.90;;
51358;SDS011;37448;51.588;7.248;2023-09-30T06:09:33;10.45;;;3.83;;
51358;SDS011;37448;51.588;7.248;2023-09-30T06:11:34;8.23;;;2.92;;
51358;SDS011;37448;51.588;7.248;2023-09-30T06:13:36;8.65;;;3.38;;
51358;SDS011;37448;51.588;7.248;2023-09-30T06:15:36;10.05;;;3.72;;
51358;SDS011;37448;51.588;7.248;2023-09-30T06:17:40;12.57;;;3.72;;
51358;SDS011;37448;51.588;7.248;2023-09-30T06:19:41;15.57;;;4.30;;
51358;SDS011;37448;51.588;7.248;2023-09-30T06:21:41;7.50;;;3.40;;
51358;SDS011;37448;51.588;7.248;2023-09-30T06:23:42;8.50;;;4.05;;
51358;SDS011;37448;51.588;7.248;2023-09-30T06:25:43;11.82;;;4.00;;
51358;SDS011;37448;51.588;7.248;2023-09-30T06:27:44;10.43;;;3.78;;
51358;SDS011;37448;51.588;7.248;2023-09-30T06:29:45;8.88;;;3.97;;
51358;SDS011;37448;51.588;7.248;2023-09-30T06:31:46;11.02;;;4.05;;
51358;SDS011;37448;51.588;7.248;2023-09-30T06:33:47;11.88;;;4.70;;
51358;SDS011;37448;51.588;7.248;2023-09-30T06:35:47;11.00;;;4.07;;
51358;SDS011;37448;51.588;7.248;2023-09-30T06:37:50;17.10;;;3.97;;
51358;SDS011;37448;51.588;7.248;2023-09-30T06:39:51;10.63;;;3.60;;
51358;SDS011;37448;51.588;7.248;2023-09-30T06:41:51;14.25;;;4.68;;
51358;SDS011;37448;51.588;7.248;2023-09-30T06:43:52;14.43;;;4.78;;
51358;SDS011;37448;51.588;7.248;2023-09-30T06:45:52;8.82;;;4.05;;
51358;SDS011;37448;51.588;7.248;2023-09-30T06:47:52;10.75;;;4.30;;
51358;SDS011;37448;51.588;7.248;2023-09-30T06:49:54;18.48;;;5.18;;
51358;SDS011;37448;51.588;7.248;2023-09-30T06:51:55;11.80;;;3.92;;
51358;SDS011;37448;51.588;7.248;2023-09-30T06:53:55;13.80;;;4.93;;
51358;SDS011;37448;51.588;7.248;2023-09-30T06:55:55;12.70;;;4.25;;
51358;SDS011;37448;51.588;7.248;2023-09-30T06:57:56;13.18;;;4.30;;
51358;SDS011;37448;51.588;7.248;2023-09-30T06:59:56;11.48;;;3.80;;
51358;SDS011;37448;51.588;7.248;2023-09-30T07:01:56;14.63;;;4.38;;
51358;SDS011;37448;51.588;7.248;2023-09-30T07:03:57;11.80;;;3.88;;
51358;SDS011;37448;51.588;7.248;2023-09-30T07:05:57;12.20;;;4.13;;
51358;SDS011;37448;51.588;7.248;2023-09-30T07:08:00;10.93;;;3.80;;
51358;SDS011;37448;51.588;7.248;2023-09-30T07:10:00;11.00;;;4.57;;
51358;SDS011;37448;51.588;7.248;2023-09-30T07:12:01;11.45;;;4.00;;
51358;SDS011;37448;51.588;7.248;2023-09-30T07:14:02;14.43;;;4.13;;
51358;SDS011;37448;51.588;7.248;2023-09-30T07:16:02;10.18;;;3.80;;
51358;SDS011;37448;51.588;7.248;2023-09-30T07:18:03;8.20;;;3.75;;
51358;SDS011;37448;51.588;7.248;2023-09-30T07:20:03;11.75;;;4.47;;
51358;SDS011;37448;51.588;7.248;2023-09-30T07:22:05;9.65;;;4.40;;
51358;SDS011;37448;51.588;7.248;2023-09-30T07:24:05;12.52;;;3.72;;
51358;SDS011;37448;51.588;7.248;2023-09-30T07:26:06;9.18;;;3.58;;
51358;SDS011;37448;51.588;7.248;2023-09-30T07:28:06;14.10;;;4.15;;
51358;SDS011;37448;51.588;7.248;2023-09-30T07:30:12;11.13;;;3.90;;
51358;SDS011;37448;51.588;7.248;2023-09-30T07:32:15;9.10;;;3.30;;
51358;SDS011;37448;51.588;7.248;2023-09-30T07:34:16;9.27;;;3.53;;
51358;SDS011;37448;51.588;7.248;2023-09-30T07:36:17;7.63;;;3.60;;
51358;SDS011;37448;51.588;7.248;2023-09-30T07:38:18;11.75;;;3.63;;
51358;SDS011;37448;51.588;7.248;2023-09-30T07:40:18;11.07;;;3.53;;
51358;SDS011;37448;51.588;7.248;2023-09-30T07:42:18;9.15;;;3.58;;
51358;SDS011;37448;51.588;7.248;2023-09-30T07:44:19;13.13;;;3.90;;
51358;SDS011;37448;51.588;7.248;2023-09-30T07:46:19;10.95;;;3.65;;
51358;SDS011;37448;51.588;7.248;2023-09-30T07:48:20;9.75;;;3.13;;
51358;SDS011;37448;51.588;7.248;2023-09-30T07:50:20;10.40;;;3.95;;
51358;SDS011;37448;51.588;7.248;2023-09-30T07:52:20;12.38;;;4.25;;
51358;SDS011;37448;51.588;7.248;2023-09-30T07:54:21;9.57;;;4.10;;
51358;SDS011;37448;51.588;7.248;2023-09-30T07:56:21;14.93;;;4.13;;
51358;SDS011;37448;51.588;7.248;2023-09-30T07:58:22;7.82;;;3.97;;
51358;SDS011;37448;51.588;7.248;2023-09-30T08:00:22;9.52;;;3.25;;
51358;SDS011;37448;51.588;7.248;2023-09-30T08:02:23;12.60;;;3.65;;
51358;SDS011;37448;51.588;7.248;2023-09-30T08:04:27;11.55;;;4.10;;
51358;SDS011;37448;51.588;7.248;2023-09-30T08:06:29;11.52;;;3.90;;
51358;SDS011;37448;51.588;7.248;2023-09-30T08:08:30;6.57;;;3.40;;
51358;SDS011;37448;51.588;7.248;2023-09-30T08:10:30;12.07;;;3.75;;
51358;SDS011;37448;51.588;7.248;2023-09-30T08:12:32;10.63;;;3.20;;
51358;SDS011;37448;51.588;7.248;2023-09-30T08:14:33;12.77;;;3.45;;
51358;SDS011;37448;51.588;7.248;2023-09-30T08:16:33;10.07;;;4.15;;
51358;SDS011;37448;51.588;7.248;2023-09-30T08:18:33;7.82;;;2.75;;
51358;SDS011;37448;51.588;7.248;2023-09-30T08:20:34;9.20;;;3.53;;
51358;SDS011;37448;51.588;7.248;2023-09-30T08:22:34;7.93;;;3.70;;
51358;SDS011;37448;51.588;7.248;2023-09-30T08:24:35;7.90;;;3.75;;
51358;SDS011;37448;51.588;7.248;2023-09-30T08:26:35;8.93;;;3.83;;
51358;SDS011;37448;51.588;7.248;2023-09-30T08:28:36;9.60;;;3.83;;
51358;SDS011;37448;51.588;7.248;2023-09-30T08:30:36;9.55;;;3.50;;
51358;SDS011;37448;51.588;7.248;2023-09-30T08:32:37;9.75;;;4.03;;
51358;SDS011;37448;51.588;7.248;2023-09-30T08:34:37;11.38;;;3.80;;
51358;SDS011;37448;51.588;7.248;2023-09-30T08:36:38;11.50;;;3.95;;
51358;SDS011;37448;51.588;7.248;2023-09-30T08:38:38;8.65;;;3.17;;
51358;SDS011;37448;51.588;7.248;2023-09-30T08:40:40;8.73;;;3.42;;
51358;SDS011;37448;51.588;7.248;2023-09-30T08:42:41;14.52;;;4.28;;
51358;SDS011;37448;51.588;7.248;2023-09-30T08:44:41;10.15;;;3.88;;
51358;SDS011;37448;51.588;7.248;2023-09-30T08:46:43;12.68;;;4.50;;
51358;SDS011;37448;51.588;7.248;2023-09-30T08:48:44;7.95;;;3.92;;
51358;SDS011;37448;51.588;7.248;2023-09-30T08:50:46;9.82;;;3.78;;
51358;SDS011;37448;51.588;7.248;2023-09-30T08:52:49;9.50;;;3.58;;
51358;SDS011;37448;51.588;7.248;2023-09-30T08:54:51;10.68;;;3.40;;
51358;SDS011;37448;51.588;7.248;2023-09-30T08:56:52;4.35;;;2.60;;
51358;SDS011;37448;51.588;7.248;2023-09-30T08:58:54;9.55;;;3.30;;
51358;SDS011;37448;51.588;7.248;2023-09-30T09:00:56;11.95;;;3.33;;
51358;SDS011;37448;51.588;7.248;2023-09-30T09:02:57;9.45;;;3.28;;
51358;SDS011;37448;51.588;7.248;2023-09-30T09:04:58;8.20;;;3.53;;
51358;SDS011;37448;51.588;7.248;2023-09-30T09:06:59;8.65;;;3.00;;
51358;SDS011;37448;51.588;7.248;2023-09-30T09:09:12;8.68;;;2.92;;
51358;SDS011;37448;51.588;7.248;2023-09-30T09:11:14;9.88;;;3.42;;
51358;SDS011;37448;51.588;7.248;2023-09-30T09:13:15;10.32;;;2.90;;
51358;SDS011;37448;51.588;7.248;2023-09-30T09:15:22;7.30;;;3.00;;
51358;SDS011;37448;51.588;7.248;2023-09-30T09:17:29;11.00;;;3.10;;
51358;SDS011;37448;51.588;7.248;2023-09-30T09:19:40;6.93;;;2.80;;
51358;SDS011;37448;51.588;7.248;2023-09-30T09:21:54;6.82;;;2.42;;
51358;SDS011;37448;51.588;7.248;2023-09-30T09:23:56;7.43;;;2.55;;
51358;SDS011;37448;51.588;7.248;2023-09-30T09:25:57;7.20;;;2.63;;
51358;SDS011;37448;51.588;7.248;2023-09-30T09:27:58;7.53;;;2.92;;
51358;SDS011;37448;51.588;7.248;2023-09-30T09:30:13;6.47;;;2.70;;
51358;SDS011;37448;51.588;7.248;2023-09-30T09:32:21;9.98;;;3.03;;
51358;SDS011;37448;51.588;7.248;2023-09-30T09:34:22;5.00;;;2.65;;
51358;SDS011;37448;51.588;7.248;2023-09-30T09:36:37;4.07;;;2.13;;
51358;SDS011;37448;51.588;7.248;2023-09-30T09:38:49;7.07;;;2.22;;
51358;SDS011;37448;51.588;7.248;2023-09-30T09:40:58;8.68;;;2.25;;
51358;SDS011;37448;51.588;7.248;2023-09-30T09:42:59;6.63;;;3.10;;
51358;SDS011;37448;51.588;7.248;2023-09-30T09:45:05;9.55;;;2.85;;
51358;SDS011;37448;51.588;7.248;2023-09-30T09:47:06;6.10;;;2.10;;
51358;SDS011;37448;51.588;7.248;2023-09-30T09:49:07;7.00;;;1.88;;
51358;SDS011;37448;51.588;7.248;2023-09-30T09:51:08;6.88;;;2.20;;
51358;SDS011;37448;51.588;7.248;2023-09-30T09:53:09;6.72;;;2.38;;
51358;SDS011;37448;51.588;7.248;2023-09-30T09:55:11;6.13;;;1.90;;
51358;SDS011;37448;51.588;7.248;2023-09-30T09:57:12;7.22;;;3.03;;
51358;SDS011;37448;51.588;7.248;2023-09-30T09:59:12;6.70;;;2.28;;
51358;SDS011;37448;51.588;7.248;2023-09-30T10:01:13;5.25;;;2.30;;
51358;SDS011;37448;51.588;7.248;2023-09-30T10:03:15;5.20;;;1.90;;
51358;SDS011;37448;51.588;7.248;2023-09-30T10:05:15;14.68;;;4.25;;
51358;SDS011;37448;51.588;7.248;2023-09-30T10:09:21;4.78;;;2.20;;
51358;SDS011;37448;51.588;7.248;2023-09-30T10:11:23;6.18;;;2.22;;
51358;SDS011;37448;51.588;7.248;2023-09-30T10:15:56;5.80;;;2.20;;
51358;SDS011;37448;51.588;7.248;2023-09-30T10:17:57;10.18;;;2.65;;
51358;SDS011;37448;51.588;7.248;2023-09-30T10:20:05;6.07;;;2.45;;
51358;SDS011;37448;51.588;7.248;2023-09-30T10:26:23;5.50;;;2.22;;
51358;SDS011;37448;51.588;7.248;2023-09-30T10:30:33;6.53;;;1.95;;
51358;SDS011;37448;51.588;7.248;2023-09-30T10:34:51;8.30;;;2.45;;
51358;SDS011;37448;51.588;7.248;2023-09-30T10:36:52;6.55;;;2.50;;
51358;SDS011;37448;51.588;7.248;2023-09-30T10:38:53;6.13;;;2.35;;
51358;SDS011;37448;51.588;7.248;2023-09-30T10:40:53;6.20;;;2.25;;
51358;SDS011;37448;51.588;7.248;2023-09-30T10:42:54;6.65;;;2.00;;
51358;SDS011;37448;51.588;7.248;2023-09-30T10:44:55;5.38;;;2.42;;
51358;SDS011;37448;51.588;7.248;2023-09-30T10:46:59;6.53;;;2.17;;
51358;SDS011;37448;51.588;7.248;2023-09-30T10:51:24;7.00;;;1.67;;
51358;SDS011;37448;51.588;7.248;2023-09-30T10:53:24;6.90;;;2.17;;
51358;SDS011;37448;51.588;7.248;2023-09-30T10:55:27;5.70;;;2.38;;
51358;SDS011;37448;51.588;7.248;2023-09-30T10:57:29;6.22;;;2.55;;
51358;SDS011;37448;51.588;7.248;2023-09-30T10:59:29;3.00;;;1.55;;
51358;SDS011;37448;51.588;7.248;2023-09-30T11:01:33;2.90;;;1.83;;
51358;SDS011;37448;51.588;7.248;2023-09-30T11:03:34;12.40;;;2.53;;
51358;SDS011;37448;51.588;7.248;2023-09-30T11:05:35;4.28;;;2.03;;
51358;SDS011;37448;51.588;7.248;2023-09-30T11:07:35;4.20;;;2.10;;
51358;SDS011;37448;51.588;7.248;2023-09-30T11:09:38;5.13;;;1.67;;
51358;SDS011;37448;51.588;7.248;2023-09-30T11:11:44;4.95;;;1.92;;
51358;SDS011;37448;51.588;7.248;2023-09-30T11:13:51;3.38;;;1.65;;
51358;SDS011;37448;51.588;7.248;2023-09-30T11:16:04;4.90;;;1.90;;
51358;SDS011;37448;51.588;7.248;2023-09-30T11:18:14;3.78;;;1.40;;
51358;SDS011;37448;51.588;7.248;2023-09-30T11:20:16;4.97;;;1.70;;
51358;SDS011;37448;51.588;7.248;2023-09-30T11:22:18;6.07;;;2.13;;
51358;SDS011;37448;51.588;7.248;2023-09-30T11:24:19;4.65;;;1.77;;
51358;SDS011;37448;51.588;7.248;2023-09-30T11:26:29;3.65;;;1.80;;
51358;SDS011;37448;51.588;7.248;2023-09-30T11:28:35;4.75;;;1.70;;
51358;SDS011;37448;51.588;7.248;2023-09-30T11:33:18;3.65;;;1.63;;
51358;SDS011;37448;51.588;7.248;2023-09-30T11:35:22;7.00;;;1.98;;
51358;SDS011;37448;51.588;7.248;2023-09-30T11:37:23;5.78;;;2.20;;
51358;SDS011;37448;51.588;7.248;2023-09-30T11:39:25;5.40;;;2.65;;
51358;SDS011;37448;51.588;7.248;2023-09-30T11:41:32;5.70;;;1.58;;
51358;SDS011;37448;51.588;7.248;2023-09-30T11:43:33;6.13;;;1.63;;
51358;SDS011;37448;51.588;7.248;2023-09-30T11:45:34;5.63;;;3.17;;
51358;SDS011;37448;51.588;7.248;2023-09-30T11:47:35;6.43;;;2.10;;
51358;SDS011;37448;51.588;7.248;2023-09-30T11:49:36;5.68;;;1.88;;
51358;SDS011;37448;51.588;7.248;2023-09-30T11:51:44;7.72;;;2.40;;
51358;SDS011;37448;51.588;7.248;2023-09-30T11:53:46;5.10;;;1.95;;
51358;SDS011;37448;51.588;7.248;2023-09-30T11:55:48;8.90;;;2.50;;
51358;SDS011;37448;51.588;7.248;2023-09-30T11:57:49;5.88;;;1.92;;
51358;SDS011;37448;51.588;7.248;2023-09-30T11:59:50;5.28;;;2.40;;
51358;SDS011;37448;51.588;7.248;2023-09-30T12:01:51;5.55;;;2.00;;
51358;SDS011;37448;51.588;7.248;2023-09-30T12:03:52;4.63;;;2.45;;
51358;SDS011;37448;51.588;7.248;2023-09-30T12:05:53;4.50;;;1.92;;
51358;SDS011;37448;51.588;7.248;2023-09-30T12:07:55;6.93;;;2.60;;
51358;SDS011;37448;51.588;7.248;2023-09-30T12:09:56;7.15;;;2.90;;
51358;SDS011;37448;51.588;7.248;2023-09-30T12:11:56;6.70;;;2.70;;
51358;SDS011;37448;51.588;7.248;2023-09-30T12:13:59;9.32;;;2.90;;
51358;SDS011;37448;51.588;7.248;2023-09-30T12:16:00;5.53;;;2.33;;
51358;SDS011;37448;51.588;7.248;2023-09-30T12:18:01;5.22;;;2.92;;
51358;SDS011;37448;51.588;7.248;2023-09-30T12:20:01;4.90;;;2.35;;
51358;SDS011;37448;51.588;7.248;2023-09-30T12:22:03;5.68;;;2.13;;
51358;SDS011;37448;51.588;7.248;2023-09-30T12:24:04;5.15;;;2.60;;
51358;SDS011;37448;51.588;7.248;2023-09-30T12:26:04;7.40;;;2.60;;